Time;durP1;ratioP1;P1;durP2;ratioP2;P2;SDS_P1;SDS_P2;PMS_P1;PMS_P2;Temp;Humidity;BMP_temperature;BMP_pressure;BME280_temperature;BME280_humidity;BME280_pressure;Samples;Min_cycle;Max_cycle;Signal;HPM_P1;HPM_P2
2024/03/20 00:00:57;;;;;;;63.00;8.10;;;;;;;;;;5100111;28;20435;-84
2024/03/20 00:03:26;;;;;;;62.60;8.10;;;;;;;;;;5096793;28;20857;-84
2024/03/20 00:05:54;;;;;;;61.40;6.50;;;;;;;;;;5106869;28;20466;-84
2024/03/20 00:08:21;;;;;;;63.20;7.30;;;;;;;;;;5093386;28;20438;-86
2024/03/20 00:10:48;;;;;;;60.87;7.23;;;;;;;;;;5102037;28;20446;-83
2024/03/20 00:13:17;;;;;;;61.13;7.47;;;;;;;;;;5097812;28;20471;-84
2024/03/20 00:15:45;;;;;;;62.27;7.43;;;;;;;;;;5098278;28;20471;-84
2024/03/20 00:18:14;;;;;;;59.67;7.20;;;;;;;;;;5104409;28;20578;-85
2024/03/20 00:20:40;;;;;;;60.30;6.50;;;;;;;;;;5097751;28;20458;-85
2024/03/20 00:23:10;;;;;;;65.43;7.60;;;;;;;;;;5096517;28;20804;-85
2024/03/20 00:25:37;;;;;;;61.20;7.40;;;;;;;;;;5099878;28;20974;-85
2024/03/20 00:28:05;;;;;;;61.93;7.70;;;;;;;;;;5088126;28;20444;-84
2024/03/20 00:30:33;;;;;;;61.90;7.93;;;;;;;;;;5097274;28;20531;-85
2024/03/20 00:33:01;;;;;;;60.70;7.17;;;;;;;;;;5096652;28;20894;-83
2024/03/20 00:35:28;;;;;;;61.67;7.30;;;;;;;;;;5096700;28;20455;-86
2024/03/20 00:37:55;;;;;;;61.27;7.30;;;;;;;;;;5096950;28;20447;-85
2024/03/20 00:40:22;;;;;;;63.30;7.47;;;;;;;;;;5096618;28;20435;-84
2024/03/20 00:42:50;;;;;;;63.17;8.73;;;;;;;;;;5104892;28;20439;-85
2024/03/20 00:45:17;;;;;;;60.20;7.50;;;;;;;;;;5093630;28;20463;-85
2024/03/20 00:47:46;;;;;;;60.53;7.77;;;;;;;;;;5093017;28;20513;-85
2024/03/20 00:50:13;;;;;;;61.37;7.20;;;;;;;;;;5093079;28;20436;-84
2024/03/20 00:52:41;;;;;;;61.03;7.10;;;;;;;;;;5092683;28;20479;-86
2024/03/20 00:55:09;;;;;;;62.50;8.37;;;;;;;;;;5101018;28;20459;-86
2024/03/20 00:57:36;;;;;;;61.07;7.37;;;;;;;;;;5092153;28;20470;-86
2024/03/20 01:00:04;;;;;;;60.83;7.20;;;;;;;;;;5100742;28;20434;-86
2024/03/20 01:02:31;;;;;;;59.57;6.03;;;;;;;;;;5093672;28;20505;-86
2024/03/20 01:05:00;;;;;;;62.33;7.43;;;;;;;;;;5086875;28;20460;-86
2024/03/20 01:07:27;;;;;;;62.17;6.87;;;;;;;;;;5096705;28;20446;-84
2024/03/20 01:09:54;;;;;;;63.53;7.97;;;;;;;;;;5104486;28;20472;-86
2024/03/20 01:12:22;;;;;;;62.20;7.87;;;;;;;;;;5092368;28;20540;-85
2024/03/20 01:14:49;;;;;;;60.57;6.77;;;;;;;;;;5092370;28;20492;-85
2024/03/20 01:17:16;;;;;;;61.70;7.70;;;;;;;;;;5095529;28;20588;-85
2024/03/20 01:19:44;;;;;;;60.30;7.00;;;;;;;;;;5085438;28;20455;-84
2024/03/20 01:22:13;;;;;;;60.67;7.53;;;;;;;;;;5094003;28;20482;-85
2024/03/20 01:24:40;;;;;;;61.67;7.77;;;;;;;;;;5085766;28;20847;-85
2024/03/20 01:27:07;;;;;;;59.87;6.60;;;;;;;;;;5094604;28;20740;-85
2024/03/20 01:29:35;;;;;;;61.77;7.10;;;;;;;;;;5086143;28;20437;-85
2024/03/20 01:32:02;;;;;;;63.77;7.50;;;;;;;;;;5094881;28;20449;-86
2024/03/20 01:34:30;;;;;;;62.00;7.60;;;;;;;;;;5103836;28;20441;-84
2024/03/20 01:36:57;;;;;;;59.77;7.40;;;;;;;;;;5103383;28;20474;-85
2024/03/20 01:39:26;;;;;;;67.23;8.40;;;;;;;;;;5099197;28;20456;-85
2024/03/20 01:41:53;;;;;;;60.97;7.17;;;;;;;;;;5105287;28;20447;-85
2024/03/20 01:44:21;;;;;;;60.70;7.00;;;;;;;;;;5091183;28;20435;-85
2024/03/20 01:46:48;;;;;;;61.30;7.17;;;;;;;;;;5097211;28;20493;-85
2024/03/20 01:49:16;;;;;;;60.73;6.93;;;;;;;;;;5094006;28;20954;-83
2024/03/20 01:51:43;;;;;;;59.67;6.80;;;;;;;;;;5097391;28;20444;-84
2024/03/20 01:54:10;;;;;;;60.70;7.23;;;;;;;;;;5098203;28;20489;-83
2024/03/20 01:56:40;;;;;;;61.77;7.43;;;;;;;;;;5095168;28;20688;-83
2024/03/20 01:59:08;;;;;;;61.07;6.90;;;;;;;;;;5090723;28;20489;-82
2024/03/20 02:01:35;;;;;;;63.40;7.83;;;;;;;;;;5086181;28;20451;-83
2024/03/20 02:04:02;;;;;;;60.20;6.50;;;;;;;;;;5095689;28;20938;-82
2024/03/20 02:06:30;;;;;;;61.00;6.27;;;;;;;;;;5091462;28;20529;-84
2024/03/20 02:08:58;;;;;;;60.90;7.97;;;;;;;;;;5099377;28;20545;-84
2024/03/20 02:11:26;;;;;;;60.80;8.00;;;;;;;;;;5102595;28;20440;-83
2024/03/20 02:13:55;;;;;;;61.23;7.10;;;;;;;;;;5087041;28;20480;-83
2024/03/20 02:16:23;;;;;;;61.83;7.97;;;;;;;;;;5092800;28;20467;-83
2024/03/20 02:18:51;;;;;;;65.20;7.20;;;;;;;;;;5103074;28;20439;-85
2024/03/20 02:21:20;;;;;;;60.00;7.00;;;;;;;;;;5096568;28;20451;-84
2024/03/20 02:23:48;;;;;;;61.40;7.10;;;;;;;;;;5090390;28;20464;-86
2024/03/20 02:26:15;;;;;;;60.50;6.70;;;;;;;;;;5104577;28;20451;-85
2024/03/20 02:28:44;;;;;;;60.30;6.63;;;;;;;;;;5102051;28;20442;-86
2024/03/20 02:31:11;;;;;;;62.00;7.37;;;;;;;;;;5103579;28;20472;-85
2024/03/20 02:33:39;;;;;;;60.27;6.37;;;;;;;;;;5100130;28;20489;-83
2024/03/20 02:36:07;;;;;;;60.43;7.07;;;;;;;;;;5089800;28;20960;-87
2024/03/20 02:38:37;;;;;;;61.00;6.93;;;;;;;;;;5093967;28;20498;-85
2024/03/20 02:41:04;;;;;;;60.50;7.07;;;;;;;;;;5102870;28;20470;-85
2024/03/20 02:43:31;;;;;;;60.30;6.63;;;;;;;;;;5094057;28;20886;-86
2024/03/20 02:45:59;;;;;;;64.10;7.60;;;;;;;;;;5085608;28;20467;-85
2024/03/20 02:48:26;;;;;;;59.63;6.80;;;;;;;;;;5089734;28;20486;-86
2024/03/20 02:50:53;;;;;;;61.20;7.50;;;;;;;;;;5098632;28;20449;-85
2024/03/20 02:53:20;;;;;;;59.97;7.07;;;;;;;;;;5104565;28;20821;-87
2024/03/20 02:55:49;;;;;;;60.33;7.27;;;;;;;;;;5095190;28;20487;-85
2024/03/20 02:58:19;;;;;;;60.07;7.53;;;;;;;;;;5095618;28;20493;-85
2024/03/20 03:00:46;;;;;;;60.20;7.10;;;;;;;;;;5095557;28;20436;-86
2024/03/20 03:03:14;;;;;;;62.40;7.50;;;;;;;;;;5095694;28;20439;-85
2024/03/20 03:05:41;;;;;;;60.50;7.50;;;;;;;;;;5100765;28;20991;-86
2024/03/20 03:08:08;;;;;;;61.07;7.40;;;;;;;;;;5098623;28;20609;-86
2024/03/20 03:10:35;;;;;;;62.00;8.60;;;;;;;;;;5096092;28;20443;-86
2024/03/20 03:13:04;;;;;;;62.00;7.90;;;;;;;;;;5091018;28;20482;-86
2024/03/20 03:15:33;;;;;;;62.20;7.90;;;;;;;;;;5088906;28;20452;-86
2024/03/20 03:18:01;;;;;;;61.17;7.23;;;;;;;;;;5101581;28;20511;-86
2024/03/20 03:20:28;;;;;;;61.67;7.80;;;;;;;;;;5093043;28;20440;-86
2024/03/20 03:22:56;;;;;;;60.13;6.57;;;;;;;;;;5099088;28;20568;-86
2024/03/20 03:25:23;;;;;;;61.40;7.60;;;;;;;;;;5100385;28;20488;-86
2024/03/20 03:27:50;;;;;;;62.80;7.47;;;;;;;;;;5098779;28;20455;-85
2024/03/20 03:30:19;;;;;;;60.77;8.07;;;;;;;;;;5089290;28;20528;-85
2024/03/20 03:32:46;;;;;;;60.07;6.90;;;;;;;;;;5078247;28;20451;-86
2024/03/20 03:35:13;;;;;;;59.73;7.00;;;;;;;;;;5086664;28;20486;-86
2024/03/20 03:37:41;;;;;;;61.30;6.87;;;;;;;;;;5084357;28;20924;-86
2024/03/20 03:40:10;;;;;;;60.10;6.73;;;;;;;;;;5086598;28;20468;-86
2024/03/20 03:42:38;;;;;;;61.60;7.00;;;;;;;;;;5091607;28;20539;-86
2024/03/20 03:45:06;;;;;;;62.60;7.70;;;;;;;;;;5086530;28;20472;-86
2024/03/20 03:47:34;;;;;;;61.17;6.60;;;;;;;;;;5086404;28;20463;-86
2024/03/20 03:50:03;;;;;;;61.63;6.60;;;;;;;;;;5086486;28;20512;-86
2024/03/20 03:52:31;;;;;;;61.80;6.30;;;;;;;;;;5099217;28;20625;-86
2024/03/20 03:54:58;;;;;;;61.20;7.17;;;;;;;;;;5094505;28;20494;-86
2024/03/20 03:57:25;;;;;;;62.70;7.27;;;;;;;;;;5097926;28;20450;-85
2024/03/20 03:59:52;;;;;;;60.40;6.97;;;;;;;;;;5088104;28;20451;-86
2024/03/20 04:02:21;;;;;;;64.60;7.23;;;;;;;;;;5091560;28;20439;-86
2024/03/20 04:04:49;;;;;;;59.40;6.73;;;;;;;;;;5089757;28;20448;-86
2024/03/20 04:07:17;;;;;;;63.27;7.60;;;;;;;;;;5089759;28;20469;-85
2024/03/20 04:09:44;;;;;;;59.80;6.43;;;;;;;;;;5089248;28;20455;-86
2024/03/20 04:12:11;;;;;;;61.80;8.10;;;;;;;;;;5095615;28;20504;-86
2024/03/20 04:14:38;;;;;;;60.63;6.90;;;;;;;;;;5084633;28;21055;-86
2024/03/20 04:17:05;;;;;;;60.10;7.23;;;;;;;;;;5084567;28;20490;-86
2024/03/20 04:19:33;;;;;;;60.37;7.53;;;;;;;;;;5101279;28;20438;-86
2024/03/20 04:22:02;;;;;;;62.27;7.60;;;;;;;;;;5092849;28;20508;-86
2024/03/20 04:24:30;;;;;;;59.37;6.47;;;;;;;;;;5093016;28;20450;-86
2024/03/20 04:26:57;;;;;;;59.30;6.13;;;;;;;;;;5086753;28;20550;-86
2024/03/20 04:29:25;;;;;;;59.70;6.90;;;;;;;;;;5089373;28;20444;-86
2024/03/20 04:31:53;;;;;;;59.43;6.50;;;;;;;;;;5095474;28;20443;-86
2024/03/20 04:34:20;;;;;;;60.07;7.20;;;;;;;;;;5087027;28;20482;-86
2024/03/20 04:36:48;;;;;;;61.17;6.93;;;;;;;;;;5086048;28;20461;-86
2024/03/20 04:39:18;;;;;;;60.80;7.00;;;;;;;;;;5094118;28;20497;-86
2024/03/20 04:41:47;;;;;;;61.00;7.60;;;;;;;;;;5092939;28;20462;-86
2024/03/20 04:44:14;;;;;;;59.83;6.43;;;;;;;;;;5091860;28;20452;-86
2024/03/20 04:46:41;;;;;;;61.27;8.10;;;;;;;;;;5103083;28;20484;-86
2024/03/20 04:49:08;;;;;;;59.97;7.60;;;;;;;;;;5098900;28;20452;-86
2024/03/20 04:51:36;;;;;;;60.27;6.63;;;;;;;;;;5096748;28;20439;-86
2024/03/20 04:54:03;;;;;;;60.20;7.10;;;;;;;;;;5101407;28;20477;-86
2024/03/20 04:56:31;;;;;;;61.50;7.10;;;;;;;;;;5102020;28;20467;-86
2024/03/20 04:58:59;;;;;;;61.70;7.90;;;;;;;;;;5106094;28;20465;-86
2024/03/20 05:01:25;;;;;;;60.67;7.50;;;;;;;;;;5103495;28;20444;-86
2024/03/20 05:03:52;;;;;;;59.67;7.10;;;;;;;;;;5109320;28;20435;-86
2024/03/20 05:06:19;;;;;;;61.20;6.90;;;;;;;;;;5116042;28;20499;-85
2024/03/20 05:08:47;;;;;;;61.30;7.57;;;;;;;;;;5113439;28;20465;-86
2024/03/20 05:11:14;;;;;;;62.47;8.23;;;;;;;;;;5115805;28;20433;-85
2024/03/20 05:13:41;;;;;;;61.60;7.53;;;;;;;;;;5110541;28;20505;-85
2024/03/20 05:16:09;;;;;;;60.47;6.60;;;;;;;;;;5119106;28;20461;-85
2024/03/20 05:18:36;;;;;;;61.17;7.13;;;;;;;;;;5119170;28;20437;-85
2024/03/20 05:21:03;;;;;;;62.40;8.50;;;;;;;;;;5103517;28;20447;-85
2024/03/20 05:23:30;;;;;;;64.17;7.50;;;;;;;;;;5098763;28;20994;-85
2024/03/20 05:25:57;;;;;;;61.17;6.90;;;;;;;;;;5098758;28;20458;-86
2024/03/20 05:28:24;;;;;;;60.67;7.77;;;;;;;;;;5099085;28;20432;-85
2024/03/20 05:30:53;;;;;;;61.60;7.60;;;;;;;;;;5104491;28;20430;-85
2024/03/20 05:33:19;;;;;;;61.23;7.37;;;;;;;;;;5101473;28;20470;-85
2024/03/20 05:35:49;;;;;;;60.97;7.50;;;;;;;;;;5108066;28;20462;-85
2024/03/20 05:38:16;;;;;;;62.60;7.00;;;;;;;;;;5105201;28;20435;-84
2024/03/20 05:40:43;;;;;;;60.70;7.53;;;;;;;;;;5100278;28;20845;-85
2024/03/20 05:43:10;;;;;;;61.97;7.57;;;;;;;;;;5099667;28;20514;-84
2024/03/20 05:45:37;;;;;;;60.50;7.10;;;;;;;;;;5096001;28;20528;-84
2024/03/20 05:48:05;;;;;;;62.53;7.17;;;;;;;;;;5087032;28;20442;-85
2024/03/20 05:50:33;;;;;;;61.80;7.63;;;;;;;;;;5097012;28;21010;-84
2024/03/20 05:52:59;;;;;;;62.50;8.53;;;;;;;;;;5086072;28;20513;-84
2024/03/20 05:55:26;;;;;;;62.27;8.27;;;;;;;;;;5097847;28;20474;-85
2024/03/20 05:57:53;;;;;;;62.57;7.30;;;;;;;;;;5085606;28;20515;-84
2024/03/20 06:00:24;;;;;;;62.60;7.80;;;;;;;;;;5092651;28;20947;-84
2024/03/20 06:02:52;;;;;;;60.83;7.50;;;;;;;;;;5095369;28;20443;-84
2024/03/20 06:05:19;;;;;;;60.10;7.50;;;;;;;;;;5112201;28;20559;-83
2024/03/20 06:07:47;;;;;;;62.13;8.10;;;;;;;;;;5106631;28;20455;-85
2024/03/20 06:10:13;;;;;;;63.37;8.53;;;;;;;;;;5106317;28;20459;-85
2024/03/20 06:12:40;;;;;;;62.10;8.53;;;;;;;;;;5108280;28;20434;-85
2024/03/20 06:15:08;;;;;;;63.27;8.47;;;;;;;;;;5085735;28;20498;-85
2024/03/20 06:17:35;;;;;;;60.90;7.97;;;;;;;;;;5090398;28;20476;-84
2024/03/20 06:20:05;;;;;;;62.33;8.37;;;;;;;;;;5090642;28;20930;-85
2024/03/20 06:22:34;;;;;;;60.37;8.20;;;;;;;;;;5077668;28;20501;-85
2024/03/20 06:25:02;;;;;;;62.40;8.20;;;;;;;;;;5085589;28;20856;-84
2024/03/20 06:27:29;;;;;;;60.60;7.73;;;;;;;;;;5084182;28;20447;-85
2024/03/20 06:29:58;;;;;;;61.33;8.20;;;;;;;;;;5074605;28;20436;-84
2024/03/20 06:32:25;;;;;;;62.30;8.50;;;;;;;;;;5083169;28;20446;-84
2024/03/20 06:34:52;;;;;;;62.80;8.20;;;;;;;;;;5083261;28;20483;-85
2024/03/20 06:37:19;;;;;;;63.47;8.63;;;;;;;;;;5083692;28;20435;-85
2024/03/20 06:39:46;;;;;;;62.07;7.97;;;;;;;;;;5095118;28;20484;-85
2024/03/20 06:42:20;;;;;;;66.10;7.57;;;;;;;;;;5087747;28;20595;-86
2024/03/20 06:44:46;;;;;;;61.40;8.87;;;;;;;;;;5084225;28;20437;-86
2024/03/20 06:47:13;;;;;;;63.43;7.93;;;;;;;;;;5083842;28;20431;-86
2024/03/20 06:49:40;;;;;;;62.17;8.23;;;;;;;;;;5085676;28;20856;-86
2024/03/20 06:52:07;;;;;;;61.57;8.70;;;;;;;;;;5082560;28;20519;-86
2024/03/20 06:54:33;;;;;;;63.10;8.63;;;;;;;;;;5085731;28;21002;-86
2024/03/20 06:57:03;;;;;;;64.50;8.60;;;;;;;;;;5086763;28;20440;-85
2024/03/20 06:59:30;;;;;;;60.77;8.17;;;;;;;;;;5098069;28;20946;-84
2024/03/20 07:01:57;;;;;;;62.70;8.97;;;;;;;;;;5099788;28;20502;-85
2024/03/20 07:04:24;;;;;;;64.37;9.10;;;;;;;;;;5083105;28;20473;-82
2024/03/20 07:06:52;;;;;;;63.13;8.10;;;;;;;;;;5091490;28;20493;-83
2024/03/20 07:09:18;;;;;;;61.70;8.00;;;;;;;;;;5091378;28;20954;-85
2024/03/20 07:11:48;;;;;;;68.30;9.07;;;;;;;;;;5091800;28;21074;-83
2024/03/20 07:14:16;;;;;;;66.20;9.27;;;;;;;;;;5091336;28;20511;-84
2024/03/20 07:16:43;;;;;;;65.80;10.60;;;;;;;;;;5092074;28;20485;-82
2024/03/20 07:19:09;;;;;;;65.20;10.43;;;;;;;;;;5102691;28;20426;-82
2024/03/20 07:21:37;;;;;;;65.03;9.83;;;;;;;;;;5093243;28;20487;-84
2024/03/20 07:24:03;;;;;;;63.80;9.40;;;;;;;;;;5097237;28;20464;-84
2024/03/20 07:26:30;;;;;;;60.67;7.97;;;;;;;;;;5101242;28;20525;-85
2024/03/20 07:28:56;;;;;;;61.90;8.60;;;;;;;;;;5110720;28;20605;-85
2024/03/20 07:31:25;;;;;;;61.50;9.20;;;;;;;;;;5098358;28;20424;-85
2024/03/20 07:33:52;;;;;;;63.97;8.90;;;;;;;;;;5106023;28;20436;-84
2024/03/20 07:36:19;;;;;;;65.20;9.37;;;;;;;;;;5099081;28;20532;-85
2024/03/20 07:38:45;;;;;;;64.10;9.97;;;;;;;;;;5100931;28;20419;-86
2024/03/20 07:41:12;;;;;;;63.60;9.50;;;;;;;;;;5089959;28;21036;-85
2024/03/20 07:43:40;;;;;;;65.87;10.00;;;;;;;;;;5096625;28;20446;-84
2024/03/20 07:46:08;;;;;;;61.10;7.60;;;;;;;;;;5090687;28;21006;-84
2024/03/20 07:48:39;;;;;;;62.90;8.53;;;;;;;;;;5101273;28;20461;-83
2024/03/20 07:51:07;;;;;;;63.40;8.07;;;;;;;;;;5091745;28;20527;-86
2024/03/20 07:53:33;;;;;;;68.60;8.73;;;;;;;;;;5094291;28;20503;-85
2024/03/20 07:56:00;;;;;;;60.87;7.97;;;;;;;;;;5097023;28;20541;-85
2024/03/20 07:58:26;;;;;;;65.93;9.67;;;;;;;;;;5084471;28;20805;-85
2024/03/20 08:00:56;;;;;;;62.93;8.10;;;;;;;;;;5084289;28;20487;-84
2024/03/20 08:03:23;;;;;;;63.17;8.20;;;;;;;;;;5095736;28;20856;-83
2024/03/20 08:05:51;;;;;;;59.97;7.10;;;;;;;;;;5092442;28;20533;-85
2024/03/20 08:08:18;;;;;;;63.20;8.67;;;;;;;;;;5092626;28;20443;-84
2024/03/20 08:10:46;;;;;;;71.87;7.63;;;;;;;;;;5084968;28;20852;-83
2024/03/20 08:13:12;;;;;;;62.30;7.10;;;;;;;;;;5091894;28;20444;-84
2024/03/20 08:15:39;;;;;;;62.07;7.00;;;;;;;;;;5092710;28;20570;-84
2024/03/20 08:18:06;;;;;;;61.97;7.00;;;;;;;;;;5094118;28;20447;-85
2024/03/20 08:20:34;;;;;;;59.30;6.37;;;;;;;;;;5092700;28;20443;-85
2024/03/20 08:23:02;;;;;;;60.63;6.20;;;;;;;;;;5095520;28;20527;-84
2024/03/20 08:25:29;;;;;;;61.50;6.73;;;;;;;;;;5090334;28;20464;-84
2024/03/20 08:27:57;;;;;;;61.57;6.60;;;;;;;;;;5092568;28;20443;-85
2024/03/20 08:30:24;;;;;;;61.23;6.80;;;;;;;;;;5091756;28;20440;-85
2024/03/20 08:32:50;;;;;;;60.63;6.60;;;;;;;;;;5087761;28;20432;-85
2024/03/20 08:35:18;;;;;;;59.10;5.70;;;;;;;;;;5088299;28;20487;-85
2024/03/20 08:37:44;;;;;;;60.87;5.43;;;;;;;;;;5091394;28;20469;-85
2024/03/20 08:40:14;;;;;;;60.47;5.87;;;;;;;;;;5086164;28;20526;-84
2024/03/20 08:42:40;;;;;;;60.33;6.43;;;;;;;;;;5099785;28;20492;-86
2024/03/20 08:45:08;;;;;;;58.97;5.90;;;;;;;;;;5100107;28;20486;-84
2024/03/20 08:47:34;;;;;;;60.70;6.60;;;;;;;;;;5091824;28;20445;-85
2024/03/20 08:50:02;;;;;;;60.30;5.80;;;;;;;;;;5088459;28;20428;-84
2024/03/20 08:52:29;;;;;;;58.77;4.90;;;;;;;;;;5090598;28;20501;-84
2024/03/20 08:54:56;;;;;;;58.73;5.30;;;;;;;;;;5092872;28;20509;-84
2024/03/20 08:57:23;;;;;;;61.27;6.07;;;;;;;;;;5101618;28;20508;-84
2024/03/20 08:59:51;;;;;;;60.73;5.63;;;;;;;;;;5090917;28;20440;-85
2024/03/20 09:02:17;;;;;;;61.37;5.30;;;;;;;;;;5090876;28;20917;-86
2024/03/20 09:04:44;;;;;;;59.40;5.43;;;;;;;;;;5098826;28;20470;-84
2024/03/20 09:07:10;;;;;;;59.60;5.40;;;;;;;;;;5089776;28;20454;-84
2024/03/20 09:09:38;;;;;;;59.40;5.70;;;;;;;;;;5090101;28;20443;-85
2024/03/20 09:12:04;;;;;;;59.23;4.73;;;;;;;;;;5089903;28;20436;-85
2024/03/20 09:14:34;;;;;;;58.50;5.67;;;;;;;;;;5099506;28;20485;-85
2024/03/20 09:17:00;;;;;;;60.07;5.10;;;;;;;;;;5093175;28;20988;-85
2024/03/20 09:19:28;;;;;;;59.37;5.13;;;;;;;;;;5093392;28;20431;-86
2024/03/20 09:21:54;;;;;;;59.90;4.63;;;;;;;;;;5089224;28;20432;-85
2024/03/20 09:24:22;;;;;;;60.70;5.00;;;;;;;;;;5095183;28;20443;-82
2024/03/20 09:26:49;;;;;;;58.27;4.73;;;;;;;;;;5097424;28;20475;-85
2024/03/20 09:29:16;;;;;;;58.47;4.50;;;;;;;;;;5102329;28;20447;-84
2024/03/20 09:31:44;;;;;;;61.03;5.30;;;;;;;;;;5099661;28;20829;-84
2024/03/20 09:34:11;;;;;;;58.67;4.70;;;;;;;;;;5098273;28;20452;-84
2024/03/20 09:36:40;;;;;;;58.30;4.90;;;;;;;;;;5093596;28;20475;-84
2024/03/20 09:39:10;;;;;;;59.27;4.73;;;;;;;;;;5087196;28;20432;-85
2024/03/20 09:41:37;;;;;;;59.60;4.77;;;;;;;;;;5093453;28;20436;-84
2024/03/20 09:44:06;;;;;;;57.70;4.23;;;;;;;;;;5082244;28;20462;-85
2024/03/20 09:46:32;;;;;;;58.50;4.87;;;;;;;;;;5088153;28;20503;-85
2024/03/20 09:49:01;;;;;;;59.00;4.40;;;;;;;;;;5083182;28;20438;-85
2024/03/20 09:51:27;;;;;;;58.13;4.10;;;;;;;;;;5094735;28;20741;-84
2024/03/20 09:53:54;;;;;;;57.77;4.83;;;;;;;;;;5087398;28;20443;-84
2024/03/20 09:56:21;;;;;;;59.30;4.50;;;;;;;;;;5089747;28;20483;-84
2024/03/20 09:58:49;;;;;;;57.67;3.60;;;;;;;;;;5085801;28;21015;-84
2024/03/20 10:01:16;;;;;;;58.10;4.20;;;;;;;;;;5086007;28;20427;-85
2024/03/20 10:03:44;;;;;;;57.37;3.80;;;;;;;;;;5077787;28;20471;-84
2024/03/20 10:06:12;;;;;;;56.93;3.63;;;;;;;;;;5080030;28;20579;-85
2024/03/20 10:08:40;;;;;;;58.23;4.27;;;;;;;;;;5092753;28;20487;-85
2024/03/20 10:11:07;;;;;;;60.70;3.80;;;;;;;;;;5085065;28;20489;-85
2024/03/20 10:13:34;;;;;;;57.20;3.63;;;;;;;;;;5077042;28;20944;-84
2024/03/20 10:16:04;;;;;;;57.30;3.63;;;;;;;;;;5085161;28;20482;-84
2024/03/20 10:18:31;;;;;;;57.17;3.50;;;;;;;;;;5084610;28;21064;-85
2024/03/20 10:20:58;;;;;;;56.93;3.33;;;;;;;;;;5092802;28;20989;-86
2024/03/20 10:23:27;;;;;;;59.00;4.10;;;;;;;;;;5084854;28;20430;-87
2024/03/20 10:25:53;;;;;;;58.40;3.10;;;;;;;;;;5080989;28;20468;-86
2024/03/20 10:28:23;;;;;;;57.60;3.30;;;;;;;;;;5088320;28;20439;-86
2024/03/20 10:30:51;;;;;;;57.70;3.50;;;;;;;;;;5084428;28;20536;-86
2024/03/20 10:33:19;;;;;;;56.97;3.37;;;;;;;;;;5086043;28;20842;-85
2024/03/20 10:35:48;;;;;;;58.20;3.23;;;;;;;;;;5080616;28;20492;-83
2024/03/20 10:38:16;;;;;;;59.43;3.87;;;;;;;;;;5087347;28;20432;-84
2024/03/20 10:40:44;;;;;;;56.70;3.53;;;;;;;;;;5082019;28;20444;-85
2024/03/20 10:43:13;;;;;;;57.13;3.57;;;;;;;;;;5080925;28;20531;-86
2024/03/20 10:45:41;;;;;;;58.93;3.83;;;;;;;;;;5088901;28;20992;-86
2024/03/20 10:48:13;;;;;;;56.90;2.97;;;;;;;;;;5078004;28;20444;-87
2024/03/20 10:50:39;;;;;;;56.77;3.30;;;;;;;;;;5082208;28;20940;-87
2024/03/20 10:53:07;;;;;;;55.67;3.30;;;;;;;;;;5081822;28;20460;-90
2024/03/20 10:55:50;;;;;;;56.00;2.87;;;;;;;;;;5078327;28;20481;-90
2024/03/20 10:58:18;;;;;;;57.23;3.43;;;;;;;;;;5093402;28;20478;-91
2024/03/20 11:00:49;;;;;;;57.10;3.10;;;;;;;;;;5087729;28;20441;-91
2024/03/20 11:03:48;;;;;;;55.90;3.10;;;;;;;;;;5090477;28;20968;-90
2024/03/20 11:06:38;;;;;;;57.37;3.00;;;;;;;;;;5085509;28;20485;-91
2024/03/20 11:09:18;;;;;;;57.47;2.93;;;;;;;;;;5090904;28;20465;-90
2024/03/20 11:11:46;;;;;;;57.10;2.57;;;;;;;;;;5079851;28;20509;-93
2024/03/20 11:14:14;;;;;;;55.60;2.43;;;;;;;;;;5088327;28;20456;-93
2024/03/20 11:16:40;;;;;;;56.57;3.03;;;;;;;;;;5101995;28;20810;-91
2024/03/20 11:19:09;;;;;;;56.80;2.70;;;;;;;;;;5083668;28;20445;-91
2024/03/20 11:21:39;;;;;;;57.60;2.77;;;;;;;;;;5079387;28;20458;-90
2024/03/20 11:24:11;;;;;;;56.00;2.47;;;;;;;;;;5099924;28;20485;-92
2024/03/20 11:26:37;;;;;;;56.40;2.67;;;;;;;;;;5096796;28;20486;-91
2024/03/20 11:29:06;;;;;;;57.07;2.97;;;;;;;;;;5085987;28;20480;-88
2024/03/20 11:31:32;;;;;;;55.90;2.83;;;;;;;;;;5088124;28;20496;-88
2024/03/20 11:34:00;;;;;;;55.87;2.70;;;;;;;;;;5084949;28;20448;-88
2024/03/20 11:36:26;;;;;;;57.13;2.57;;;;;;;;;;5084275;28;20523;-88
2024/03/20 11:38:53;;;;;;;55.83;2.60;;;;;;;;;;5087964;28;20432;-87
2024/03/20 11:41:20;;;;;;;56.17;2.37;;;;;;;;;;5080716;28;20499;-88
2024/03/20 11:43:47;;;;;;;56.23;2.67;;;;;;;;;;5084627;28;20442;-88
2024/03/20 11:46:16;;;;;;;55.67;2.60;;;;;;;;;;5084323;28;20490;-88
2024/03/20 11:48:46;;;;;;;56.97;2.57;;;;;;;;;;5086203;28;20492;-86
2024/03/20 11:51:13;;;;;;;57.70;2.90;;;;;;;;;;5087834;28;20442;-85
2024/03/20 11:53:41;;;;;;;57.07;2.80;;;;;;;;;;5078540;28;20442;-88
2024/03/20 11:56:07;;;;;;;57.03;3.07;;;;;;;;;;5086768;28;20506;-88
2024/03/20 11:58:35;;;;;;;56.90;3.03;;;;;;;;;;5087156;28;20453;-87
2024/03/20 12:01:03;;;;;;;56.10;2.80;;;;;;;;;;5087295;28;20956;-89
2024/03/20 12:03:31;;;;;;;55.80;2.77;;;;;;;;;;5079982;28;20453;-86
2024/03/20 12:06:10;;;;;;;58.20;3.07;;;;;;;;;;5075818;28;20487;-85
2024/03/20 12:08:38;;;;;;;56.27;2.90;;;;;;;;;;5085532;28;20513;-89
2024/03/20 12:11:18;;;;;;;55.53;2.63;;;;;;;;;;5080734;28;20441;-91
2024/03/20 12:13:46;;;;;;;57.50;2.60;;;;;;;;;;5096509;28;20449;-90
2024/03/20 12:16:12;;;;;;;56.40;2.90;;;;;;;;;;5096652;28;20457;-88
2024/03/20 12:18:41;;;;;;;57.60;2.90;;;;;;;;;;5086147;28;20436;-86
2024/03/20 12:21:12;;;;;;;55.90;2.73;;;;;;;;;;5090432;28;20587;-87
2024/03/20 12:23:39;;;;;;;56.77;2.67;;;;;;;;;;5087884;28;20446;-86
2024/03/20 12:26:05;;;;;;;56.27;2.70;;;;;;;;;;5095023;28;20497;-87
2024/03/20 12:28:33;;;;;;;55.70;2.57;;;;;;;;;;5087738;28;20444;-88
2024/03/20 12:30:59;;;;;;;55.97;2.67;;;;;;;;;;5080173;28;20443;-85
2024/03/20 12:33:26;;;;;;;56.67;2.53;;;;;;;;;;5094250;28;20910;-86
2024/03/20 12:35:54;;;;;;;55.80;2.40;;;;;;;;;;5093468;28;21000;-87
2024/03/20 12:38:22;;;;;;;55.40;2.43;;;;;;;;;;5083835;28;20504;-87
2024/03/20 12:40:48;;;;;;;56.47;2.70;;;;;;;;;;5089105;28;20467;-87
2024/03/20 12:43:16;;;;;;;55.90;3.07;;;;;;;;;;5088404;28;20465;-88
2024/03/20 12:45:45;;;;;;;56.73;2.80;;;;;;;;;;5087184;28;20493;-88
2024/03/20 12:48:13;;;;;;;56.10;2.57;;;;;;;;;;5082378;28;20498;-87
2024/03/20 12:50:39;;;;;;;56.93;2.60;;;;;;;;;;5078080;28;20442;-87
2024/03/20 12:53:14;;;;;;;56.77;2.17;;;;;;;;;;5095404;28;20941;-86
2024/03/20 12:55:40;;;;;;;56.20;2.40;;;;;;;;;;5085917;28;20522;-86
2024/03/20 12:58:09;;;;;;;56.97;2.90;;;;;;;;;;5084527;28;20515;-86
2024/03/20 13:00:36;;;;;;;56.07;2.60;;;;;;;;;;5086393;28;20452;-86
2024/03/20 13:03:04;;;;;;;54.57;2.40;;;;;;;;;;5091553;28;20926;-88
2024/03/20 13:05:31;;;;;;;56.03;2.40;;;;;;;;;;5083438;28;20544;-88
2024/03/20 13:07:58;;;;;;;64.00;3.60;;;;;;;;;;5086795;28;20434;-87
2024/03/20 13:10:26;;;;;;;55.87;2.40;;;;;;;;;;5086781;28;20451;-88
2024/03/20 13:12:53;;;;;;;55.60;2.30;;;;;;;;;;5074508;28;20442;-88
2024/03/20 13:15:22;;;;;;;55.30;2.20;;;;;;;;;;5083666;28;20458;-88
2024/03/20 13:17:49;;;;;;;55.60;2.47;;;;;;;;;;5084864;28;20449;-88
2024/03/20 13:20:17;;;;;;;56.03;2.30;;;;;;;;;;5080511;28;20432;-87
2024/03/20 13:22:44;;;;;;;55.17;2.30;;;;;;;;;;5077936;28;20525;-88
2024/03/20 13:25:14;;;;;;;55.80;2.50;;;;;;;;;;5082710;28;20484;-87
2024/03/20 13:27:42;;;;;;;55.50;2.50;;;;;;;;;;5086419;28;20532;-88
2024/03/20 13:30:09;;;;;;;59.47;3.00;;;;;;;;;;5095063;28;20926;-87
2024/03/20 13:32:41;;;;;;;58.30;2.40;;;;;;;;;;5086341;28;20476;-87
2024/03/20 13:35:11;;;;;;;59.60;3.07;;;;;;;;;;5078756;28;20461;-86
2024/03/20 13:37:40;;;;;;;60.40;3.17;;;;;;;;;;5085899;28;20930;-84
2024/03/20 13:40:16;;;;;;;57.10;2.47;;;;;;;;;;5090158;28;20529;-87
2024/03/20 13:42:59;;;;;;;58.90;2.87;;;;;;;;;;5084967;28;20448;-87
2024/03/20 13:45:25;;;;;;;55.40;2.20;;;;;;;;;;5086449;28;20490;-86
2024/03/20 13:47:53;;;;;;;55.40;2.20;;;;;;;;;;5083786;28;20934;-86
2024/03/20 13:50:19;;;;;;;56.47;2.30;;;;;;;;;;5087817;28;20476;-86
2024/03/20 13:52:46;;;;;;;58.23;2.07;;;;;;;;;;5083737;28;20878;-87
2024/03/20 13:55:13;;;;;;;57.57;2.37;;;;;;;;;;5093454;28;20465;-87
2024/03/20 13:57:40;;;;;;;57.30;2.20;;;;;;;;;;5084738;28;20454;-86
2024/03/20 14:00:12;;;;;;;55.40;2.10;;;;;;;;;;5089343;28;20439;-85
2024/03/20 14:02:41;;;;;;;55.40;2.23;;;;;;;;;;5073324;28;20542;-85
2024/03/20 14:05:12;;;;;;;56.17;2.30;;;;;;;;;;5084844;28;20525;-86
2024/03/20 14:07:39;;;;;;;56.00;2.33;;;;;;;;;;5084835;28;20528;-86
2024/03/20 14:10:06;;;;;;;55.07;2.30;;;;;;;;;;5077488;28;20475;-87
2024/03/20 14:12:33;;;;;;;56.17;2.30;;;;;;;;;;5077724;28;20447;-87
2024/03/20 14:15:00;;;;;;;56.40;1.90;;;;;;;;;;5085025;28;20466;-87
2024/03/20 14:17:28;;;;;;;55.30;2.13;;;;;;;;;;5084382;28;20519;-85
2024/03/20 14:19:54;;;;;;;55.27;1.90;;;;;;;;;;5082658;28;20465;-87
2024/03/20 14:22:22;;;;;;;54.63;2.00;;;;;;;;;;5081035;28;20512;-86
2024/03/20 14:24:48;;;;;;;55.50;1.90;;;;;;;;;;5082158;28;20440;-85
2024/03/20 14:27:17;;;;;;;58.07;2.00;;;;;;;;;;5088130;28;20483;-86
2024/03/20 14:29:44;;;;;;;55.50;2.30;;;;;;;;;;5080752;28;20957;-86
2024/03/20 14:32:12;;;;;;;56.10;2.37;;;;;;;;;;5084937;28;20450;-86
2024/03/20 14:34:39;;;;;;;55.70;2.03;;;;;;;;;;5084562;28;20447;-87